sensor_id;sensor_type;location;lat;lon;timestamp;pressure;altitude;pressure_sealevel;temperature;humidity
59289;BME280;45056;47.602;9.886;2023-01-25T00:05:21;94064.03;;;0.49;68.45
59289;BME280;45056;47.602;9.886;2023-01-25T00:07:51;94068.44;;;0.41;69.27
59289;BME280;45056;47.602;9.886;2023-01-25T00:10:19;94056.09;;;0.37;69.75
59289;BME280;45056;47.602;9.886;2023-01-25T00:12:47;94069.75;;;0.32;70.09
59289;BME280;45056;47.602;9.886;2023-01-25T00:15:15;94060.88;;;0.27;70.04
59289;BME280;45056;47.602;9.886;2023-01-25T00:17:43;94056.56;;;0.23;70.48
59289;BME280;45056;47.602;9.886;2023-01-25T00:20:11;94064.94;;;0.21;70.78
59289;BME280;45056;47.602;9.886;2023-01-25T00:22:39;94057.69;;;0.22;70.58
59289;BME280;45056;47.602;9.886;2023-01-25T00:25:09;94045.84;;;0.23;70.56
59289;BME280;45056;47.602;9.886;2023-01-25T00:27:37;94054.31;;;0.25;70.42
59289;BME280;45056;47.602;9.886;2023-01-25T00:30:06;94061.22;;;0.26;70.41
59289;BME280;45056;47.602;9.886;2023-01-25T00:32:48;94066.06;;;0.20;70.77
59289;BME280;45056;47.602;9.886;2023-01-25T00:35:21;94056.06;;;0.17;70.84
59289;BME280;45056;47.602;9.886;2023-01-25T00:37:51;94052.50;;;0.13;70.96
59289;BME280;45056;47.602;9.886;2023-01-25T00:40:22;94051.72;;;0.12;71.14
59289;BME280;45056;47.602;9.886;2023-01-25T00:42:51;94054.41;;;0.12;70.96
59289;BME280;45056;47.602;9.886;2023-01-25T00:45:19;94052.16;;;0.14;70.77
59289;BME280;45056;47.602;9.886;2023-01-25T00:47:47;94046.47;;;0.16;70.52
59289;BME280;45056;47.602;9.886;2023-01-25T00:50:15;94052.16;;;0.14;70.30
59289;BME280;45056;47.602;9.886;2023-01-25T00:52:43;94044.47;;;0.13;70.71
59289;BME280;45056;47.602;9.886;2023-01-25T00:55:11;94050.25;;;0.15;70.44
59289;BME280;45056;47.602;9.886;2023-01-25T00:57:40;94038.78;;;0.14;70.23
59289;BME280;45056;47.602;9.886;2023-01-25T01:00:09;94049.91;;;0.17;69.93
59289;BME280;45056;47.602;9.886;2023-01-25T01:02:39;94042.69;;;0.17;69.84
59289;BME280;45056;47.602;9.886;2023-01-25T01:05:07;94040.75;;;0.18;69.45
59289;BME280;45056;47.602;9.886;2023-01-25T01:07:36;94041.97;;;0.20;69.43
59289;BME280;45056;47.602;9.886;2023-01-25T01:10:05;94042.03;;;0.24;69.29
59289;BME280;45056;47.602;9.886;2023-01-25T01:12:34;94042.47;;;0.26;69.22
59289;BME280;45056;47.602;9.886;2023-01-25T01:15:04;94043.25;;;0.26;68.79
59289;BME280;45056;47.602;9.886;2023-01-25T01:17:33;94052.41;;;0.25;68.61
59289;BME280;45056;47.602;9.886;2023-01-25T01:20:01;94049.38;;;0.27;68.67
59289;BME280;45056;47.602;9.886;2023-01-25T01:22:29;94045.16;;;0.26;68.83
59289;BME280;45056;47.602;9.886;2023-01-25T01:24:57;94045.94;;;0.26;68.77
59289;BME280;45056;47.602;9.886;2023-01-25T01:27:25;94037.53;;;0.28;68.87
59289;BME280;45056;47.602;9.886;2023-01-25T01:29:53;94051.63;;;0.25;68.58
59289;BME280;45056;47.602;9.886;2023-01-25T01:32:22;94048.53;;;0.23;68.77
59289;BME280;45056;47.602;9.886;2023-01-25T01:34:50;94048.53;;;0.23;69.03
59289;BME280;45056;47.602;9.886;2023-01-25T01:37:18;94048.53;;;0.23;69.17
59289;BME280;45056;47.602;9.886;2023-01-25T01:39:46;94052.25;;;0.18;69.70
59289;BME280;45056;47.602;9.886;2023-01-25T01:42:14;94050.25;;;0.15;70.43
59289;BME280;45056;47.602;9.886;2023-01-25T01:44:45;94045.16;;;0.10;70.41
59289;BME280;45056;47.602;9.886;2023-01-25T01:47:23;94028.63;;;0.04;70.82
59289;BME280;45056;47.602;9.886;2023-01-25T01:50:00;94032.41;;;0.03;70.68
59289;BME280;45056;47.602;9.886;2023-01-25T01:52:35;94037.34;;;0.01;70.62
59289;BME280;45056;47.602;9.886;2023-01-25T01:55:07;94036.88;;;-0.01;70.92
59289;BME280;45056;47.602;9.886;2023-01-25T01:57:43;94037.66;;;-0.01;70.58
59289;BME280;45056;47.602;9.886;2023-01-25T02:00:18;94032.22;;;-0.04;70.89
59289;BME280;45056;47.602;9.886;2023-01-25T02:02:51;94038.69;;;-0.05;70.73
59289;BME280;45056;47.602;9.886;2023-01-25T02:05:28;94039.81;;;-0.06;70.79
59289;BME280;45056;47.602;9.886;2023-01-25T02:08:02;94042.16;;;-0.05;70.97
59289;BME280;45056;47.602;9.886;2023-01-25T02:10:51;94045.97;;;-0.06;70.94
59289;BME280;45056;47.602;9.886;2023-01-25T02:13:20;94035.59;;;-0.07;70.65
59289;BME280;45056;47.602;9.886;2023-01-25T02:15:50;94048.53;;;-0.09;70.60
59289;BME280;45056;47.602;9.886;2023-01-25T02:18:23;94043.19;;;-0.09;70.55
59289;BME280;45056;47.602;9.886;2023-01-25T02:20:54;94045.00;;;-0.13;70.97
59289;BME280;45056;47.602;9.886;2023-01-25T02:23:33;94042.75;;;-0.11;70.70
59289;BME280;45056;47.602;9.886;2023-01-25T02:26:17;94051.16;;;-0.13;70.84
59289;BME280;45056;47.602;9.886;2023-01-25T02:28:49;94048.06;;;-0.15;70.94
59289;BME280;45056;47.602;9.886;2023-01-25T02:31:22;94047.59;;;-0.17;70.89
59289;BME280;45056;47.602;9.886;2023-01-25T02:33:50;94043.34;;;-0.18;70.84
59289;BME280;45056;47.602;9.886;2023-01-25T02:36:21;94041.13;;;-0.16;71.02
59289;BME280;45056;47.602;9.886;2023-01-25T02:38:56;94032.00;;;-0.15;70.98
59289;BME280;45056;47.602;9.886;2023-01-25T02:41:33;94036.22;;;-0.14;71.19
59289;BME280;45056;47.602;9.886;2023-01-25T02:44:05;94044.16;;;-0.18;71.15
59289;BME280;45056;47.602;9.886;2023-01-25T02:46:38;94040.25;;;-0.20;71.17
59289;BME280;45056;47.602;9.886;2023-01-25T02:49:08;94031.09;;;-0.19;71.26
59289;BME280;45056;47.602;9.886;2023-01-25T02:51:41;94027.31;;;-0.18;71.22
59289;BME280;45056;47.602;9.886;2023-01-25T02:54:12;94025.00;;;-0.20;71.38
59289;BME280;45056;47.602;9.886;2023-01-25T02:56:43;94020.78;;;-0.21;71.33
59289;BME280;45056;47.602;9.886;2023-01-25T02:59:11;94025.69;;;-0.23;71.00
59289;BME280;45056;47.602;9.886;2023-01-25T03:01:42;94021.03;;;-0.26;71.36
59289;BME280;45056;47.602;9.886;2023-01-25T03:04:11;94015.25;;;-0.28;70.92
59289;BME280;45056;47.602;9.886;2023-01-25T03:06:40;94017.50;;;-0.30;71.35
59289;BME280;45056;47.602;9.886;2023-01-25T03:09:09;94023.72;;;-0.26;71.12
59289;BME280;45056;47.602;9.886;2023-01-25T03:11:38;94009.63;;;-0.23;70.89
59289;BME280;45056;47.602;9.886;2023-01-25T03:14:08;94007.41;;;-0.21;70.67
59289;BME280;45056;47.602;9.886;2023-01-25T03:16:36;94007.47;;;-0.17;70.08
59289;BME280;45056;47.602;9.886;2023-01-25T03:19:04;93998.78;;;-0.14;70.17
59289;BME280;45056;47.602;9.886;2023-01-25T03:21:32;93999.25;;;-0.08;69.82
59289;BME280;45056;47.602;9.886;2023-01-25T03:24:01;93993.22;;;-0.05;69.46
59289;BME280;45056;47.602;9.886;2023-01-25T03:26:29;93992.44;;;-0.06;69.25
59289;BME280;45056;47.602;9.886;2023-01-25T03:29:19;93995.81;;;-0.09;68.99
59289;BME280;45056;47.602;9.886;2023-01-25T03:31:46;93994.59;;;-0.11;68.68
59289;BME280;45056;47.602;9.886;2023-01-25T03:34:14;93988.84;;;-0.13;69.13
59289;BME280;45056;47.602;9.886;2023-01-25T03:36:43;93989.63;;;-0.13;69.14
59289;BME280;45056;47.602;9.886;2023-01-25T03:39:11;93996.84;;;-0.13;68.85
59289;BME280;45056;47.602;9.886;2023-01-25T03:41:39;93988.06;;;-0.14;69.07
59289;BME280;45056;47.602;9.886;2023-01-25T03:44:07;93997.22;;;-0.15;69.24
59289;BME280;45056;47.602;9.886;2023-01-25T03:46:38;93988.84;;;-0.13;69.15
59289;BME280;45056;47.602;9.886;2023-01-25T03:49:07;93992.63;;;-0.15;69.44
59289;BME280;45056;47.602;9.886;2023-01-25T03:51:36;93982.34;;;-0.12;69.44
59289;BME280;45056;47.602;9.886;2023-01-25T03:54:05;93986.59;;;-0.11;69.19
59289;BME280;45056;47.602;9.886;2023-01-25T03:56:33;93990.38;;;-0.12;69.14
59289;BME280;45056;47.602;9.886;2023-01-25T03:59:02;93988.84;;;-0.13;69.50
59289;BME280;45056;47.602;9.886;2023-01-25T04:01:31;93977.00;;;-0.12;69.56
59289;BME280;45056;47.602;9.886;2023-01-25T04:04:00;93980.09;;;-0.10;69.50
59289;BME280;45056;47.602;9.886;2023-01-25T04:06:28;93981.75;;;-0.06;69.44
59289;BME280;45056;47.602;9.886;2023-01-25T04:08:56;93984.84;;;-0.04;69.36
59289;BME280;45056;47.602;9.886;2023-01-25T04:11:24;93987.16;;;-0.02;69.39
59289;BME280;45056;47.602;9.886;2023-01-25T04:13:53;93977.94;;;-0.05;69.71
59289;BME280;45056;47.602;9.886;2023-01-25T04:16:22;93980.97;;;-0.06;69.60
59289;BME280;45056;47.602;9.886;2023-01-25T04:18:50;93966.81;;;-0.07;69.64
59289;BME280;45056;47.602;9.886;2023-01-25T04:21:19;93971.75;;;-0.09;69.42
59289;BME280;45056;47.602;9.886;2023-01-25T04:23:47;93968.28;;;-0.09;69.46
59289;BME280;45056;47.602;9.886;2023-01-25T04:26:15;93966.03;;;-0.07;69.51
59289;BME280;45056;47.602;9.886;2023-01-25T04:28:43;93969.50;;;-0.07;69.70
59289;BME280;45056;47.602;9.886;2023-01-25T04:31:11;93966.81;;;-0.07;69.82
59289;BME280;45056;47.602;9.886;2023-01-25T04:33:39;93967.59;;;-0.06;69.84
59289;BME280;45056;47.602;9.886;2023-01-25T04:36:07;93970.25;;;-0.06;69.56
59289;BME280;45056;47.602;9.886;2023-01-25T04:38:37;93970.25;;;-0.06;69.82
59289;BME280;45056;47.602;9.886;2023-01-25T04:41:05;93971.38;;;-0.07;69.56
59289;BME280;45056;47.602;9.886;2023-01-25T04:43:33;93968.38;;;-0.06;69.77
59289;BME280;45056;47.602;9.886;2023-01-25T04:46:01;93972.59;;;-0.05;69.32
59289;BME280;45056;47.602;9.886;2023-01-25T04:48:29;93965.69;;;-0.06;69.41
59289;BME280;45056;47.602;9.886;2023-01-25T04:50:58;93969.91;;;-0.05;69.58
59289;BME280;45056;47.602;9.886;2023-01-25T04:53:26;93964.22;;;-0.03;69.41
59289;BME280;45056;47.602;9.886;2023-01-25T04:55:55;93954.28;;;-0.03;69.25
59289;BME280;45056;47.602;9.886;2023-01-25T04:58:23;93956.53;;;-0.05;69.21
59289;BME280;45056;47.602;9.886;2023-01-25T05:00:51;93947.31;;;-0.07;69.17
59289;BME280;45056;47.602;9.886;2023-01-25T05:03:19;93940.06;;;-0.07;69.44
59289;BME280;45056;47.602;9.886;2023-01-25T05:05:48;93948.00;;;-0.10;69.46
59289;BME280;45056;47.602;9.886;2023-01-25T05:08:16;93952.94;;;-0.12;69.21
59289;BME280;45056;47.602;9.886;2023-01-25T05:10:44;93945.59;;;-0.16;69.45
59289;BME280;45056;47.602;9.886;2023-01-25T05:13:13;93940.59;;;-0.17;69.79
59289;BME280;45056;47.602;9.886;2023-01-25T05:15:41;93945.59;;;-0.16;69.72
59289;BME280;45056;47.602;9.886;2023-01-25T05:18:09;93941.03;;;-0.15;69.72
59289;BME280;45056;47.602;9.886;2023-01-25T05:20:37;93939.97;;;-0.10;69.49
59289;BME280;45056;47.602;9.886;2023-01-25T05:23:05;93940.06;;;-0.07;69.53
59289;BME280;45056;47.602;9.886;2023-01-25T05:25:33;93937.81;;;-0.05;69.18
59289;BME280;45056;47.602;9.886;2023-01-25T05:28:20;93941.94;;;-0.07;68.50
59289;BME280;45056;47.602;9.886;2023-01-25T05:30:48;93938.84;;;-0.09;68.49
59289;BME280;45056;47.602;9.886;2023-01-25T05:33:16;93934.19;;;-0.12;68.19
59289;BME280;45056;47.602;9.886;2023-01-25T05:35:44;93934.09;;;-0.16;68.22
59289;BME280;45056;47.602;9.886;2023-01-25T05:38:12;93937.16;;;-0.18;67.84
59289;BME280;45056;47.602;9.886;2023-01-25T05:40:40;93932.50;;;-0.21;67.90
59289;BME280;45056;47.602;9.886;2023-01-25T05:43:08;93935.94;;;-0.20;67.98
59289;BME280;45056;47.602;9.886;2023-01-25T05:45:37;93934.31;;;-0.25;67.96
59289;BME280;45056;47.602;9.886;2023-01-25T05:48:06;93935.78;;;-0.27;68.22
59289;BME280;45056;47.602;9.886;2023-01-25T05:50:34;93929.25;;;-0.30;68.30
59289;BME280;45056;47.602;9.886;2023-01-25T05:53:02;93931.47;;;-0.32;68.11
59289;BME280;45056;47.602;9.886;2023-01-25T05:55:30;93929.84;;;-0.37;68.32
59289;BME280;45056;47.602;9.886;2023-01-25T05:57:58;93931.31;;;-0.39;68.46
59289;BME280;45056;47.602;9.886;2023-01-25T06:00:26;93928.28;;;-0.38;68.27
59289;BME280;45056;47.602;9.886;2023-01-25T06:02:59;93925.19;;;-0.40;68.07
59289;BME280;45056;47.602;9.886;2023-01-25T06:05:27;93933.91;;;-0.43;68.20
59289;BME280;45056;47.602;9.886;2023-01-25T06:07:56;93934.25;;;-0.45;68.45
59289;BME280;45056;47.602;9.886;2023-01-25T06:10:25;93934.16;;;-0.48;68.29
59289;BME280;45056;47.602;9.886;2023-01-25T06:12:56;93939.50;;;-0.48;68.56
59289;BME280;45056;47.602;9.886;2023-01-25T06:15:24;93941.13;;;-0.44;68.63
59289;BME280;45056;47.602;9.886;2023-01-25T06:17:53;93932.41;;;-0.40;68.30
59289;BME280;45056;47.602;9.886;2023-01-25T06:20:23;93933.28;;;-0.36;68.50
59289;BME280;45056;47.602;9.886;2023-01-25T06:22:51;93938.38;;;-0.31;68.16
59289;BME280;45056;47.602;9.886;2023-01-25T06:25:19;93937.59;;;-0.32;68.15
59289;BME280;45056;47.602;9.886;2023-01-25T06:27:47;93934.81;;;-0.35;67.81
59289;BME280;45056;47.602;9.886;2023-01-25T06:30:15;93941.66;;;-0.38;68.10
59289;BME280;45056;47.602;9.886;2023-01-25T06:32:44;93935.94;;;-0.36;68.18
59289;BME280;45056;47.602;9.886;2023-01-25T06:35:12;93937.94;;;-0.33;68.23
59289;BME280;45056;47.602;9.886;2023-01-25T06:37:41;93937.69;;;-0.28;68.11
59289;BME280;45056;47.602;9.886;2023-01-25T06:40:10;93934.22;;;-0.28;67.90
59289;BME280;45056;47.602;9.886;2023-01-25T06:42:38;93943.03;;;-0.28;68.04
59289;BME280;45056;47.602;9.886;2023-01-25T06:45:07;93936.81;;;-0.32;68.07
59289;BME280;45056;47.602;9.886;2023-01-25T06:47:37;93935.72;;;-0.31;67.84
59289;BME280;45056;47.602;9.886;2023-01-25T06:50:06;93925.00;;;-0.31;67.91
59289;BME280;45056;47.602;9.886;2023-01-25T06:52:35;93934.81;;;-0.35;67.79
59289;BME280;45056;47.602;9.886;2023-01-25T06:55:06;93931.31;;;-0.39;68.05
59289;BME280;45056;47.602;9.886;2023-01-25T06:57:39;93933.53;;;-0.41;68.31
59289;BME280;45056;47.602;9.886;2023-01-25T07:00:08;93923.53;;;-0.45;68.70
59289;BME280;45056;47.602;9.886;2023-01-25T07:02:37;93918.09;;;-0.48;68.95
59289;BME280;45056;47.602;9.886;2023-01-25T07:05:06;93908.91;;;-0.51;69.18
59289;BME280;45056;47.602;9.886;2023-01-25T07:07:34;93917.94;;;-0.55;69.00
59289;BME280;45056;47.602;9.886;2023-01-25T07:10:03;93909.84;;;-0.59;69.05
59289;BME280;45056;47.602;9.886;2023-01-25T07:12:33;93907.50;;;-0.61;69.15
59289;BME280;45056;47.602;9.886;2023-01-25T07:15:01;93912.53;;;-0.59;69.12
59289;BME280;45056;47.602;9.886;2023-01-25T07:17:29;93917.19;;;-0.56;68.85
59289;BME280;45056;47.602;9.886;2023-01-25T07:19:57;93913.38;;;-0.55;68.65
59289;BME280;45056;47.602;9.886;2023-01-25T07:22:25;93922.25;;;-0.51;68.91
59289;BME280;45056;47.602;9.886;2023-01-25T07:24:53;93925.38;;;-0.49;68.72
59289;BME280;45056;47.602;9.886;2023-01-25T07:27:24;93922.69;;;-0.49;68.66
59289;BME280;45056;47.602;9.886;2023-01-25T07:29:52;93912.69;;;-0.52;69.07
59289;BME280;45056;47.602;9.886;2023-01-25T07:32:20;93916.06;;;-0.55;69.21
59289;BME280;45056;47.602;9.886;2023-01-25T07:34:48;93922.53;;;-0.56;68.93
59289;BME280;45056;47.602;9.886;2023-01-25T07:37:16;93918.72;;;-0.55;68.88
59289;BME280;45056;47.602;9.886;2023-01-25T07:39:44;93917.19;;;-0.56;68.66
59289;BME280;45056;47.602;9.886;2023-01-25T07:42:15;93918.72;;;-0.55;68.72
59289;BME280;45056;47.602;9.886;2023-01-25T07:44:45;93909.06;;;-0.60;68.49
59289;BME280;45056;47.602;9.886;2023-01-25T07:47:13;93912.97;;;-0.57;68.72
59289;BME280;45056;47.602;9.886;2023-01-25T07:49:41;93914.50;;;-0.56;68.30
59289;BME280;45056;47.602;9.886;2023-01-25T07:52:09;93917.94;;;-0.55;68.38
59289;BME280;45056;47.602;9.886;2023-01-25T07:54:37;93907.69;;;-0.53;68.35
59289;BME280;45056;47.602;9.886;2023-01-25T07:57:05;93906.13;;;-0.54;68.04
59289;BME280;45056;47.602;9.886;2023-01-25T07:59:33;93905.00;;;-0.53;68.29
59289;BME280;45056;47.602;9.886;2023-01-25T08:02:02;93910.34;;;-0.53;68.19
59289;BME280;45056;47.602;9.886;2023-01-25T08:04:30;93905.84;;;-0.49;67.99
59289;BME280;45056;47.602;9.886;2023-01-25T08:06:58;93905.53;;;-0.48;68.32
59289;BME280;45056;47.602;9.886;2023-01-25T08:09:26;93893.00;;;-0.44;68.57
59289;BME280;45056;47.602;9.886;2023-01-25T08:11:55;93898.44;;;-0.40;68.34
59289;BME280;45056;47.602;9.886;2023-01-25T08:14:23;93900.00;;;-0.39;68.17
59289;BME280;45056;47.602;9.886;2023-01-25T08:16:51;93899.22;;;-0.39;68.35
59289;BME280;45056;47.602;9.886;2023-01-25T08:19:20;93892.75;;;-0.38;68.08
59289;BME280;45056;47.602;9.886;2023-01-25T08:21:50;93900.75;;;-0.38;68.44
59289;BME280;45056;47.602;9.886;2023-01-25T08:24:18;93892.41;;;-0.37;68.46
59289;BME280;45056;47.602;9.886;2023-01-25T08:26:46;93894.81;;;-0.32;68.09
59289;BME280;45056;47.602;9.886;2023-01-25T08:29:15;93882.66;;;-0.29;67.90
59289;BME280;45056;47.602;9.886;2023-01-25T08:31:43;93880.41;;;-0.27;68.23
59289;BME280;45056;47.602;9.886;2023-01-25T08:34:11;93880.81;;;-0.25;68.25
59289;BME280;45056;47.602;9.886;2023-01-25T08:36:41;93877.34;;;-0.25;68.17
59289;BME280;45056;47.602;9.886;2023-01-25T08:39:11;93873.13;;;-0.26;68.56
59289;BME280;45056;47.602;9.886;2023-01-25T08:41:40;93872.38;;;-0.27;68.36
59289;BME280;45056;47.602;9.886;2023-01-25T08:44:08;93867.09;;;-0.23;68.56
59289;BME280;45056;47.602;9.886;2023-01-25T08:46:36;93866.03;;;-0.19;68.53
59289;BME280;45056;47.602;9.886;2023-01-25T08:49:04;93862.38;;;-0.10;68.39
59289;BME280;45056;47.602;9.886;2023-01-25T08:51:33;93856.75;;;-0.05;68.00
59289;BME280;45056;47.602;9.886;2023-01-25T08:54:03;93858.81;;;0.02;67.48
59289;BME280;45056;47.602;9.886;2023-01-25T08:56:32;93854.69;;;0.04;67.41
59289;BME280;45056;47.602;9.886;2023-01-25T08:59:00;93854.72;;;0.08;67.24
59289;BME280;45056;47.602;9.886;2023-01-25T09:01:28;93854.44;;;0.13;66.91
59289;BME280;45056;47.602;9.886;2023-01-25T09:03:57;93854.53;;;0.17;67.19
59289;BME280;45056;47.602;9.886;2023-01-25T09:06:25;93849.59;;;0.19;66.85
59289;BME280;45056;47.602;9.886;2023-01-25T09:08:53;93846.91;;;0.19;66.84
59289;BME280;45056;47.602;9.886;2023-01-25T09:11:22;93847.72;;;0.19;66.53
59289;BME280;45056;47.602;9.886;2023-01-25T09:13:50;93846.06;;;0.14;66.38
59289;BME280;45056;47.602;9.886;2023-01-25T09:16:20;93846.78;;;0.11;66.18
59289;BME280;45056;47.602;9.886;2023-01-25T09:18:54;93846.00;;;0.11;66.29
59289;BME280;45056;47.602;9.886;2023-01-25T09:21:24;93845.38;;;0.18;66.24
59289;BME280;45056;47.602;9.886;2023-01-25T09:23:53;93838.59;;;0.24;66.16
59289;BME280;45056;47.602;9.886;2023-01-25T09:26:23;93842.50;;;0.26;65.96
59289;BME280;45056;47.602;9.886;2023-01-25T09:28:53;93838.25;;;0.25;65.82
59289;BME280;45056;47.602;9.886;2023-01-25T09:31:21;93829.09;;;0.26;65.80
59289;BME280;45056;47.602;9.886;2023-01-25T09:33:51;93835.22;;;0.27;65.85
59289;BME280;45056;47.602;9.886;2023-01-25T09:36:19;93824.09;;;0.25;65.39
59289;BME280;45056;47.602;9.886;2023-01-25T09:38:47;93829.81;;;0.23;65.89
59289;BME280;45056;47.602;9.886;2023-01-25T09:41:30;93825.28;;;0.27;65.97
59289;BME280;45056;47.602;9.886;2023-01-25T09:44:22;93832.28;;;0.32;65.39
59289;BME280;45056;47.602;9.886;2023-01-25T09:47:05;93822.66;;;0.31;65.38
59289;BME280;45056;47.602;9.886;2023-01-25T09:50:10;93823.78;;;0.30;65.05
59289;BME280;45056;47.602;9.886;2023-01-25T09:53:24;93820.84;;;0.35;64.73
59289;BME280;45056;47.602;9.886;2023-01-25T09:56:03;93826.56;;;0.34;64.93
59289;BME280;45056;47.602;9.886;2023-01-25T09:58:45;93817.47;;;0.38;64.96
59289;BME280;45056;47.602;9.886;2023-01-25T10:01:21;93825.91;;;0.40;64.59
59289;BME280;45056;47.602;9.886;2023-01-25T10:03:57;93825.63;;;0.46;64.52
59289;BME280;45056;47.602;9.886;2023-01-25T10:06:37;93827.66;;;0.52;64.26
59289;BME280;45056;47.602;9.886;2023-01-25T10:09:19;93825.53;;;0.62;64.33
59289;BME280;45056;47.602;9.886;2023-01-25T10:12:05;93826.84;;;0.71;64.29
59289;BME280;45056;47.602;9.886;2023-01-25T10:14:42;93826.25;;;0.82;63.94
59289;BME280;45056;47.602;9.886;2023-01-25T10:17:17;93827.03;;;0.82;63.79
59289;BME280;45056;47.602;9.886;2023-01-25T10:20:07;93825.06;;;0.79;64.05
59289;BME280;45056;47.602;9.886;2023-01-25T10:22:47;93821.19;;;0.77;64.22
59289;BME280;45056;47.602;9.886;2023-01-25T10:25:33;93829.22;;;0.77;64.08
59289;BME280;45056;47.602;9.886;2023-01-25T10:28:36;93814.59;;;0.70;64.41
59289;BME280;45056;47.602;9.886;2023-01-25T10:31:16;93816.84;;;0.68;64.55
59289;BME280;45056;47.602;9.886;2023-01-25T10:33:47;93811.91;;;0.70;64.67
59289;BME280;45056;47.602;9.886;2023-01-25T10:36:19;93806.59;;;0.74;64.68
59289;BME280;45056;47.602;9.886;2023-01-25T10:38:54;93804.69;;;0.75;64.54
59289;BME280;45056;47.602;9.886;2023-01-25T10:41:31;93802.44;;;0.77;64.35
59289;BME280;45056;47.602;9.886;2023-01-25T10:44:10;93806.66;;;0.78;64.03
59289;BME280;45056;47.602;9.886;2023-01-25T10:46:56;93798.97;;;0.76;64.42
59289;BME280;45056;47.602;9.886;2023-01-25T10:49:39;93802.03;;;0.75;64.34
59289;BME280;45056;47.602;9.886;2023-01-25T10:52:13;93800.53;;;0.77;64.20
59289;BME280;45056;47.602;9.886;2023-01-25T10:54:46;93794.41;;;0.77;64.15
59289;BME280;45056;47.602;9.886;2023-01-25T10:57:18;93793.19;;;0.74;64.19
59289;BME280;45056;47.602;9.886;2023-01-25T10:59:50;93789.75;;;0.74;64.08
59289;BME280;45056;47.602;9.886;2023-01-25T11:02:44;93779.03;;;0.74;64.06
59289;BME280;45056;47.602;9.886;2023-01-25T11:05:29;93783.09;;;0.64;64.03
59289;BME280;45056;47.602;9.886;2023-01-25T11:08:21;93784.63;;;0.65;64.33
59289;BME280;45056;47.602;9.886;2023-01-25T11:10:51;93781.66;;;0.70;64.60
59289;BME280;45056;47.602;9.886;2023-01-25T11:13:24;93779.03;;;0.74;64.40
59289;BME280;45056;47.602;9.886;2023-01-25T11:16:10;93775.66;;;0.77;64.37
59289;BME280;45056;47.602;9.886;2023-01-25T11:18:52;93765.34;;;0.79;64.43
59289;BME280;45056;47.602;9.886;2023-01-25T11:21:23;93764.94;;;0.77;64.40
59289;BME280;45056;47.602;9.886;2023-01-25T11:24:01;93763.72;;;0.74;64.31
59289;BME280;45056;47.602;9.886;2023-01-25T11:26:33;93765.28;;;0.75;64.40
59289;BME280;45056;47.602;9.886;2023-01-25T11:29:10;93761.84;;;0.75;64.49
59289;BME280;45056;47.602;9.886;2023-01-25T11:31:45;93754.94;;;0.74;64.52
59289;BME280;45056;47.602;9.886;2023-01-25T11:34:19;93754.22;;;0.77;64.40
59289;BME280;45056;47.602;9.886;2023-01-25T11:37:06;93756.06;;;0.73;64.34
59289;BME280;45056;47.602;9.886;2023-01-25T11:39:56;93748.44;;;0.75;64.58
59289;BME280;45056;47.602;9.886;2023-01-25T11:42:37;93739.22;;;0.72;64.06
59289;BME280;45056;47.602;9.886;2023-01-25T11:45:41;93733.81;;;0.68;64.53
59289;BME280;45056;47.602;9.886;2023-01-25T11:48:48;93734.56;;;0.69;64.88
59289;BME280;45056;47.602;9.886;2023-01-25T11:51:37;93724.66;;;0.69;65.03
59289;BME280;45056;47.602;9.886;2023-01-25T11:54:39;93731.53;;;0.70;65.13
59289;BME280;45056;47.602;9.886;2023-01-25T11:57:32;93724.56;;;0.66;65.14
59289;BME280;45056;47.602;9.886;2023-01-25T12:03:59;93701.53;;;0.61;65.55
59289;BME280;45056;47.602;9.886;2023-01-25T12:07:02;93704.59;;;0.60;65.93
59289;BME280;45056;47.602;9.886;2023-01-25T12:09:55;93699.31;;;0.63;65.93
59289;BME280;45056;47.602;9.886;2023-01-25T12:12:42;93698.56;;;0.66;65.92
59289;BME280;45056;47.602;9.886;2023-01-25T12:15:34;93685.19;;;0.66;65.84
59289;BME280;45056;47.602;9.886;2023-01-25T12:18:32;93682.91;;;0.68;65.91
59289;BME280;45056;47.602;9.886;2023-01-25T12:21:24;93669.94;;;0.70;66.07
59289;BME280;45056;47.602;9.886;2023-01-25T12:24:24;93672.66;;;0.74;66.03
59289;BME280;45056;47.602;9.886;2023-01-25T12:27:18;93663.53;;;0.79;65.89
59289;BME280;45056;47.602;9.886;2023-01-25T12:30:02;93666.28;;;0.82;65.96
59289;BME280;45056;47.602;9.886;2023-01-25T12:32:45;93659.38;;;0.81;65.95
59289;BME280;45056;47.602;9.886;2023-01-25T12:35:27;93656.31;;;0.83;65.98
59289;BME280;45056;47.602;9.886;2023-01-25T12:38:02;93646.44;;;0.87;66.00
59289;BME280;45056;47.602;9.886;2023-01-25T12:40:47;93655.97;;;0.84;65.73
59289;BME280;45056;47.602;9.886;2023-01-25T12:43:26;93646.75;;;0.82;66.04
59289;BME280;45056;47.602;9.886;2023-01-25T12:46:04;93653.97;;;0.78;66.40
59289;BME280;45056;47.602;9.886;2023-01-25T12:48:44;93654.69;;;0.75;66.05
59289;BME280;45056;47.602;9.886;2023-01-25T12:51:20;93643.19;;;0.74;66.16
59289;BME280;45056;47.602;9.886;2023-01-25T12:53:57;93639.38;;;0.75;66.21
59289;BME280;45056;47.602;9.886;2023-01-25T12:56:36;93640.56;;;0.78;66.18
59289;BME280;45056;47.602;9.886;2023-01-25T12:59:17;93634.38;;;0.74;66.07
59289;BME280;45056;47.602;9.886;2023-01-25T13:01:57;93630.88;;;0.69;66.20
59289;BME280;45056;47.602;9.886;2023-01-25T13:04:51;93635.53;;;0.73;65.95
59289;BME280;45056;47.602;9.886;2023-01-25T13:07:34;93617.19;;;0.75;65.90
59289;BME280;45056;47.602;9.886;2023-01-25T13:10:16;93620.69;;;0.79;66.16
59289;BME280;45056;47.602;9.886;2023-01-25T13:12:52;93620.34;;;0.80;65.87
59289;BME280;45056;47.602;9.886;2023-01-25T13:15:38;93621.50;;;0.83;66.04
59289;BME280;45056;47.602;9.886;2023-01-25T13:18:35;93615.31;;;0.79;66.10
59289;BME280;45056;47.602;9.886;2023-01-25T13:21:09;93612.59;;;0.75;66.01
59289;BME280;45056;47.602;9.886;2023-01-25T13:23:40;93605.69;;;0.74;66.18
59289;BME280;45056;47.602;9.886;2023-01-25T13:26:41;93607.59;;;0.74;66.04
59289;BME280;45056;47.602;9.886;2023-01-25T13:29:56;93606.06;;;0.73;66.20
59289;BME280;45056;47.602;9.886;2023-01-25T13:35:41;93595.66;;;0.67;66.51
59289;BME280;45056;47.602;9.886;2023-01-25T13:38:30;93593.75;;;0.68;66.49
59289;BME280;45056;47.602;9.886;2023-01-25T13:41:04;93594.88;;;0.67;66.40
59289;BME280;45056;47.602;9.886;2023-01-25T13:43:47;93591.78;;;0.65;66.48
59289;BME280;45056;47.602;9.886;2023-01-25T13:46:36;93599.06;;;0.64;66.54
59289;BME280;45056;47.602;9.886;2023-01-25T13:49:16;93597.53;;;0.63;66.70